createdAt,value
2023-04-07T00:00:44.804Z,21.10
2023-04-07T00:04:46.067Z,18.20
2023-04-07T00:08:47.325Z,19.00
2023-04-07T00:12:48.496Z,20.33
2023-04-07T00:16:49.696Z,18.37
2023-04-07T00:20:50.870Z,18.43
2023-04-07T00:24:52.068Z,16.17
2023-04-07T00:28:53.222Z,17.30
2023-04-07T00:32:54.430Z,17.60
2023-04-07T00:36:55.676Z,17.50
2023-04-07T00:40:58.649Z,15.93
2023-04-07T00:45:00.153Z,18.27
2023-04-07T00:49:01.276Z,19.60
2023-04-07T00:53:02.438Z,19.33
2023-04-07T00:57:03.860Z,19.20
2023-04-07T01:01:08.854Z,18.70
2023-04-07T01:05:19.665Z,16.73
2023-04-07T01:09:27.693Z,17.13
2023-04-07T01:13:38.203Z,19.20
2023-04-07T01:17:49.396Z,17.00
2023-04-07T01:21:54.145Z,16.87
2023-04-07T01:26:28.518Z,17.87
2023-04-07T01:30:32.479Z,18.93
2023-04-07T01:34:35.110Z,18.17
2023-04-07T01:38:38.368Z,16.60
2023-04-07T01:42:40.925Z,16.37
2023-04-07T01:46:42.139Z,16.63
2023-04-07T01:50:44.256Z,17.23
2023-04-07T01:54:46.023Z,15.90
2023-04-07T01:58:47.175Z,17.27
2023-04-07T02:02:51.401Z,14.53
2023-04-07T02:06:56.507Z,15.57
2023-04-07T02:10:59.050Z,16.90
2023-04-07T02:15:00.735Z,14.97
2023-04-07T02:19:03.018Z,15.20
2023-04-07T02:23:04.289Z,14.57
2023-04-07T02:27:05.448Z,15.60
2023-04-07T02:31:06.598Z,13.30
2023-04-07T02:35:07.988Z,14.50
2023-04-07T02:39:09.988Z,16.03
2023-04-07T02:43:11.118Z,15.00
2023-04-07T02:47:12.293Z,14.83
2023-04-07T02:51:13.581Z,15.67
2023-04-07T02:55:14.837Z,13.13
2023-04-07T02:59:16.386Z,14.10
2023-04-07T03:03:17.821Z,13.77
2023-04-07T03:07:19.129Z,12.73
2023-04-07T03:11:20.355Z,14.07
2023-04-07T03:15:21.470Z,15.80
2023-04-07T03:19:22.637Z,13.77
2023-04-07T03:23:23.806Z,13.70
2023-04-07T03:27:25.062Z,17.00
2023-04-07T03:31:26.509Z,15.53
2023-04-07T03:35:27.678Z,15.77
2023-04-07T03:39:29.037Z,14.20
2023-04-07T03:43:30.297Z,14.37
2023-04-07T03:47:31.722Z,15.07
2023-04-07T03:51:33.555Z,14.07
2023-04-07T03:55:36.146Z,14.93
2023-04-07T03:59:37.707Z,14.17
2023-04-07T04:03:38.962Z,12.80
2023-04-07T04:07:40.541Z,13.47
2023-04-07T04:11:41.914Z,14.57
2023-04-07T04:15:43.110Z,12.53
2023-04-07T04:19:44.236Z,13.73
2023-04-07T04:23:45.590Z,15.77
2023-04-07T04:27:46.791Z,14.37
2023-04-07T04:31:48.000Z,14.80
2023-04-07T04:35:49.237Z,14.73
2023-04-07T04:39:50.569Z,15.13
2023-04-07T04:43:51.775Z,14.83
2023-04-07T04:47:52.977Z,15.20
2023-04-07T04:51:54.131Z,15.37
2023-04-07T04:55:55.314Z,14.83
2023-04-07T04:59:56.479Z,14.60
2023-04-07T05:03:58.704Z,16.23
2023-04-07T05:08:00.512Z,14.37
2023-04-07T05:12:01.876Z,15.77
2023-04-07T05:16:03.319Z,16.13
2023-04-07T05:20:05.555Z,13.50
2023-04-07T05:24:09.260Z,14.80
2023-04-07T05:28:10.187Z,14.20
2023-04-07T05:32:11.376Z,16.40
2023-04-07T05:36:12.522Z,15.50
2023-04-07T05:40:13.939Z,15.80
2023-04-07T05:44:15.192Z,15.60
2023-04-07T05:48:16.377Z,16.10
2023-04-07T05:52:17.817Z,15.33
2023-04-07T05:56:19.007Z,15.40
2023-04-07T06:00:21.310Z,16.10
2023-04-07T06:04:22.474Z,15.60
2023-04-07T06:08:23.662Z,16.43
2023-04-07T06:12:25.039Z,15.40
2023-04-07T06:16:26.304Z,14.20
2023-04-07T06:20:27.440Z,15.30
2023-04-07T06:24:28.597Z,14.10
2023-04-07T06:28:29.852Z,16.20
2023-04-07T06:32:31.045Z,16.03
2023-04-07T06:36:33.205Z,14.30
2023-04-07T06:40:34.454Z,17.07
2023-04-07T06:44:35.604Z,14.87
2023-04-07T06:48:36.649Z,15.00
2023-04-07T06:52:37.826Z,15.27
2023-04-07T06:56:40.085Z,15.37
2023-04-07T07:00:41.250Z,14.07
2023-04-07T07:04:42.409Z,17.70
2023-04-07T07:08:43.581Z,19.07
2023-04-07T07:12:45.130Z,17.10
2023-04-07T07:16:47.939Z,18.20
2023-04-07T07:20:50.041Z,18.50
2023-04-07T07:24:51.210Z,18.23
2023-04-07T07:28:52.459Z,18.90
2023-04-07T07:32:54.567Z,15.20
2023-04-07T07:36:55.690Z,16.60
2023-04-07T07:40:56.774Z,16.73
2023-04-07T07:44:59.131Z,14.77
2023-04-07T07:49:00.510Z,15.70
2023-04-07T07:53:02.080Z,24.80
2023-04-07T07:57:03.873Z,16.43
2023-04-07T08:01:05.030Z,15.93
2023-04-07T08:05:06.810Z,15.70
2023-04-07T08:09:08.031Z,15.87
2023-04-07T08:13:09.176Z,16.20
2023-04-07T08:17:11.779Z,16.73
2023-04-07T08:21:13.404Z,16.33
2023-04-07T08:25:15.011Z,16.47
2023-04-07T08:29:16.176Z,16.67
2023-04-07T08:33:17.342Z,16.63
2023-04-07T08:37:18.643Z,16.37
2023-04-07T08:41:23.605Z,15.50
2023-04-07T08:45:25.746Z,16.20
2023-04-07T08:49:29.065Z,15.33
2023-04-07T08:53:34.005Z,16.83
2023-04-07T08:57:36.769Z,16.93
2023-04-07T09:01:39.242Z,16.03
2023-04-07T09:05:40.664Z,15.17
2023-04-07T09:09:41.972Z,19.87
2023-04-07T09:13:43.333Z,16.70
2023-04-07T09:17:44.528Z,16.17
2023-04-07T09:21:51.722Z,16.40
2023-04-07T09:25:52.853Z,16.10
2023-04-07T09:29:57.822Z,15.87
2023-04-07T09:33:59.279Z,18.17
2023-04-07T09:38:03.247Z,17.90
2023-04-07T09:42:06.434Z,19.10
2023-04-07T09:46:16.636Z,16.97
2023-04-07T09:50:34.957Z,18.23
2023-04-07T09:54:38.268Z,17.00
2023-04-07T09:58:40.350Z,16.40
2023-04-07T10:02:42.961Z,17.57
2023-04-07T10:06:45.260Z,16.40
2023-04-07T10:10:49.035Z,16.40
2023-04-07T10:14:51.198Z,18.50
2023-04-07T10:18:52.480Z,18.83
2023-04-07T10:22:56.951Z,19.37
2023-04-07T10:27:02.914Z,18.37
2023-04-07T10:31:04.737Z,18.50
2023-04-07T10:35:08.195Z,19.27
2023-04-07T10:39:13.135Z,18.47
2023-04-07T10:43:21.570Z,19.33
2023-04-07T10:47:23.010Z,16.80
2023-04-07T10:51:24.306Z,17.20
2023-04-07T10:55:37.708Z,16.23
2023-04-07T10:59:42.723Z,17.80
2023-04-07T11:03:56.634Z,18.23
2023-04-07T11:07:59.846Z,17.37
2023-04-07T11:12:01.930Z,17.07
2023-04-07T11:16:03.280Z,18.10
2023-04-07T11:20:06.162Z,16.87
2023-04-07T11:24:07.642Z,17.67
2023-04-07T11:28:11.759Z,16.47
2023-04-07T11:32:13.372Z,17.30
2023-04-07T11:36:14.738Z,14.53
2023-04-07T11:40:19.827Z,13.03
2023-04-07T11:44:20.983Z,12.47
2023-04-07T11:48:28.984Z,9.27
2023-04-07T11:52:42.207Z,8.30
2023-04-07T11:56:47.199Z,8.43
2023-04-07T12:01:02.205Z,7.87
2023-04-07T12:05:04.447Z,9.33
2023-04-07T12:09:05.969Z,7.30
2023-04-07T12:13:08.376Z,7.57
2023-04-07T12:17:22.143Z,6.77
2023-04-07T12:21:25.496Z,8.50
2023-04-07T12:25:26.814Z,8.20
2023-04-07T12:29:28.977Z,8.50
2023-04-07T12:33:30.985Z,9.20
2023-04-07T12:37:33.190Z,11.70
2023-04-07T12:41:34.475Z,12.33
2023-04-07T12:45:36.009Z,14.10
2023-04-07T12:49:37.311Z,12.53
2023-04-07T12:53:38.488Z,14.70
2023-04-07T12:57:39.655Z,12.83
2023-04-07T13:01:41.065Z,13.93
2023-04-07T13:05:42.308Z,14.50
2023-04-07T13:09:43.608Z,16.80
2023-04-07T13:13:44.789Z,13.43
2023-04-07T13:17:46.730Z,16.03
2023-04-07T13:21:48.459Z,14.87
2023-04-07T13:25:49.829Z,14.33
2023-04-07T13:29:50.960Z,13.40
2023-04-07T13:33:52.272Z,12.57
2023-04-07T13:37:53.436Z,13.43
2023-04-07T13:41:55.558Z,13.50
2023-04-07T13:45:56.915Z,9.83
2023-04-07T13:49:58.482Z,11.73
2023-04-07T13:53:59.880Z,9.50
2023-04-07T13:58:01.418Z,9.83
2023-04-07T14:02:02.836Z,10.67
2023-04-07T14:06:04.198Z,12.23
2023-04-07T14:10:06.436Z,9.90
2023-04-07T14:14:08.435Z,11.70
2023-04-07T14:18:10.097Z,10.90
2023-04-07T14:22:12.174Z,11.13
2023-04-07T14:26:13.342Z,10.00
2023-04-07T14:30:14.660Z,9.53
2023-04-07T14:34:15.822Z,9.57
2023-04-07T14:38:16.976Z,10.20
2023-04-07T14:42:18.946Z,7.60
2023-04-07T14:46:20.251Z,8.53
2023-04-07T14:50:23.059Z,7.60
2023-04-07T14:54:24.245Z,6.60
2023-04-07T14:58:25.403Z,8.07
2023-04-07T15:02:27.882Z,8.83
2023-04-07T15:06:29.136Z,8.77
2023-04-07T15:10:30.590Z,7.30
2023-04-07T15:14:31.986Z,7.80
2023-04-07T15:18:33.563Z,7.10
2023-04-07T15:22:35.493Z,6.20
2023-04-07T15:26:36.750Z,6.93
2023-04-07T15:30:37.899Z,7.20
2023-04-07T15:34:39.075Z,5.97
2023-04-07T15:38:40.246Z,7.30
2023-04-07T15:42:42.178Z,6.43
2023-04-07T15:46:43.419Z,6.10
2023-04-07T15:50:44.736Z,5.73
2023-04-07T15:54:45.900Z,6.57
2023-04-07T15:58:47.083Z,5.10
2023-04-07T16:02:48.367Z,5.67
2023-04-07T16:06:49.894Z,5.03
2023-04-07T16:10:51.038Z,4.70
2023-04-07T16:14:52.270Z,5.87
2023-04-07T16:18:53.479Z,6.70
2023-04-07T16:22:54.633Z,5.37
2023-04-07T16:26:55.819Z,3.70
2023-04-07T16:30:57.085Z,3.57
2023-04-07T16:34:58.245Z,3.93
2023-04-07T16:38:59.415Z,4.13
2023-04-07T16:43:00.697Z,4.17
2023-04-07T16:47:03.379Z,4.33
2023-04-07T16:51:05.637Z,4.23
2023-04-07T16:55:07.248Z,3.77
2023-04-07T16:59:08.418Z,3.60
2023-04-07T17:03:09.779Z,3.50
2023-04-07T17:07:11.418Z,4.00
2023-04-07T17:11:12.656Z,5.73
2023-04-07T17:15:14.767Z,8.50
2023-04-07T17:19:16.215Z,8.70
2023-04-07T17:23:17.609Z,6.27
2023-04-07T17:27:18.763Z,5.63
2023-04-07T17:31:20.001Z,5.37
2023-04-07T17:35:22.012Z,7.23
2023-04-07T17:39:23.213Z,6.53
2023-04-07T17:43:24.358Z,5.93
2023-04-07T17:47:25.555Z,5.30
2023-04-07T17:51:26.997Z,6.23
2023-04-07T17:55:28.143Z,7.30
2023-04-07T17:59:29.512Z,8.03
2023-04-07T18:03:31.336Z,7.37
2023-04-07T18:07:32.680Z,8.50
2023-04-07T18:11:33.757Z,7.03
2023-04-07T18:15:35.527Z,7.33
2023-04-07T18:19:36.779Z,5.33
2023-04-07T18:23:37.938Z,5.50
2023-04-07T18:27:39.143Z,4.80
2023-04-07T18:31:43.707Z,4.47
2023-04-07T18:35:44.869Z,4.33
2023-04-07T18:39:46.922Z,5.30
2023-04-07T18:43:48.276Z,5.13
2023-04-07T18:47:50.641Z,5.83
2023-04-07T18:51:52.014Z,6.37
2023-04-07T18:55:53.176Z,5.77
2023-04-07T18:59:54.350Z,7.53
2023-04-07T19:03:57.252Z,6.50
2023-04-07T19:07:58.897Z,8.53
2023-04-07T19:12:00.058Z,16.07
2023-04-07T19:16:02.152Z,18.00
2023-04-07T19:20:03.912Z,13.53
2023-04-07T19:24:05.804Z,10.53
2023-04-07T19:28:06.952Z,17.80
2023-04-07T19:32:08.273Z,7.93
2023-04-07T19:36:10.238Z,8.10
2023-04-07T19:40:11.433Z,5.57
2023-04-07T19:44:12.740Z,5.20
2023-04-07T19:48:14.681Z,4.83
2023-04-07T19:52:16.150Z,4.40
2023-04-07T19:56:17.463Z,5.80
2023-04-07T20:00:18.746Z,5.73
2023-04-07T20:04:20.205Z,8.47
2023-04-07T20:08:21.386Z,8.37
2023-04-07T20:12:23.151Z,7.47
2023-04-07T20:16:24.363Z,7.90
2023-04-07T20:20:25.540Z,8.10
2023-04-07T20:24:27.512Z,6.37
2023-04-07T20:28:28.710Z,5.60
2023-04-07T20:32:29.964Z,7.33
2023-04-07T20:36:31.352Z,5.40
2023-04-07T20:40:36.831Z,6.30
2023-04-07T20:44:38.040Z,6.40
2023-04-07T20:48:39.213Z,6.30
2023-04-07T20:52:42.436Z,8.20
2023-04-07T20:56:44.395Z,7.00
2023-04-07T21:00:45.894Z,9.40
2023-04-07T21:04:47.243Z,7.33
2023-04-07T21:08:48.597Z,7.47
2023-04-07T21:12:49.984Z,6.77
2023-04-07T21:16:51.437Z,6.73
2023-04-07T21:20:52.619Z,6.60
2023-04-07T21:24:55.066Z,5.63
2023-04-07T21:28:56.775Z,6.90
2023-04-07T21:32:57.984Z,5.30
2023-04-07T21:36:59.232Z,6.37
2023-04-07T21:41:00.571Z,5.60
2023-04-07T21:45:02.197Z,6.40
2023-04-07T21:49:03.892Z,6.50
2023-04-07T21:53:05.062Z,4.13
2023-04-07T21:57:06.936Z,3.83
2023-04-07T22:01:08.099Z,3.87
2023-04-07T22:05:10.183Z,4.23
2023-04-07T22:09:11.345Z,5.23
2023-04-07T22:13:12.588Z,4.30
2023-04-07T22:17:13.971Z,3.10
2023-04-07T22:21:15.250Z,3.37
2023-04-07T22:25:16.686Z,2.90
2023-04-07T22:29:17.848Z,3.23
2023-04-07T22:33:19.019Z,3.70
2023-04-07T22:37:20.209Z,3.10
2023-04-07T22:41:21.664Z,3.40
2023-04-07T22:45:22.855Z,4.00
2023-04-07T22:49:24.022Z,4.17
2023-04-07T22:53:25.211Z,3.00
2023-04-07T22:57:26.383Z,3.10
2023-04-07T23:01:27.778Z,3.33
2023-04-07T23:05:29.020Z,3.03
2023-04-07T23:09:30.499Z,3.80
2023-04-07T23:13:31.645Z,3.80
2023-04-07T23:17:33.237Z,4.07
2023-04-07T23:21:34.342Z,4.70
2023-04-07T23:25:35.521Z,5.17
2023-04-07T23:29:36.684Z,4.00
2023-04-07T23:33:37.817Z,4.00
2023-04-07T23:37:38.905Z,3.73
2023-04-07T23:41:40.363Z,2.90
2023-04-07T23:45:41.554Z,3.30
2023-04-07T23:49:42.888Z,3.13
2023-04-07T23:53:44.093Z,3.10
2023-04-07T23:57:45.255Z,3.00
